sensor_id;sensor_type;location;lat;lon;timestamp;P1;durP1;ratioP1;P2;durP2;ratioP2
16403;SDS011;8311;50.158;8.642;2023-02-01T00:00:36;2.92;;;1.27;;
16403;SDS011;8311;50.158;8.642;2023-02-01T00:03:31;2.55;;;1.17;;
16403;SDS011;8311;50.158;8.642;2023-02-01T00:06:24;2.22;;;1.10;;
16403;SDS011;8311;50.158;8.642;2023-02-01T00:09:17;2.10;;;1.10;;
16403;SDS011;8311;50.158;8.642;2023-02-01T00:12:11;4.30;;;1.35;;
16403;SDS011;8311;50.158;8.642;2023-02-01T00:15:05;1.88;;;1.13;;
16403;SDS011;8311;50.158;8.642;2023-02-01T00:17:58;1.75;;;1.13;;
16403;SDS011;8311;50.158;8.642;2023-02-01T00:20:53;2.05;;;1.20;;
16403;SDS011;8311;50.158;8.642;2023-02-01T00:23:46;3.08;;;1.35;;
16403;SDS011;8311;50.158;8.642;2023-02-01T00:26:40;2.60;;;1.23;;
16403;SDS011;8311;50.158;8.642;2023-02-01T00:29:34;1.40;;;0.88;;
16403;SDS011;8311;50.158;8.642;2023-02-01T00:32:27;2.08;;;1.00;;
16403;SDS011;8311;50.158;8.642;2023-02-01T00:35:20;2.38;;;1.00;;
16403;SDS011;8311;50.158;8.642;2023-02-01T00:38:14;1.80;;;1.25;;
16403;SDS011;8311;50.158;8.642;2023-02-01T00:41:09;2.72;;;1.25;;
16403;SDS011;8311;50.158;8.642;2023-02-01T00:44:04;2.25;;;1.05;;
16403;SDS011;8311;50.158;8.642;2023-02-01T00:46:57;2.10;;;1.08;;
16403;SDS011;8311;50.158;8.642;2023-02-01T00:49:51;1.90;;;1.00;;
16403;SDS011;8311;50.158;8.642;2023-02-01T00:52:44;1.17;;;1.00;;
16403;SDS011;8311;50.158;8.642;2023-02-01T00:55:38;1.95;;;1.45;;
16403;SDS011;8311;50.158;8.642;2023-02-01T00:58:32;2.35;;;1.10;;
16403;SDS011;8311;50.158;8.642;2023-02-01T01:01:26;3.38;;;1.02;;
16403;SDS011;8311;50.158;8.642;2023-02-01T01:04:20;2.15;;;1.10;;
16403;SDS011;8311;50.158;8.642;2023-02-01T01:07:14;2.15;;;0.95;;
16403;SDS011;8311;50.158;8.642;2023-02-01T01:10:08;1.73;;;0.95;;
16403;SDS011;8311;50.158;8.642;2023-02-01T01:13:02;1.75;;;1.00;;
16403;SDS011;8311;50.158;8.642;2023-02-01T01:15:55;4.30;;;1.15;;
16403;SDS011;8311;50.158;8.642;2023-02-01T01:18:48;2.03;;;1.27;;
16403;SDS011;8311;50.158;8.642;2023-02-01T01:21:42;1.92;;;1.17;;
16403;SDS011;8311;50.158;8.642;2023-02-01T01:24:35;2.20;;;1.33;;
16403;SDS011;8311;50.158;8.642;2023-02-01T01:27:28;2.78;;;1.27;;
16403;SDS011;8311;50.158;8.642;2023-02-01T01:30:23;2.00;;;1.30;;
16403;SDS011;8311;50.158;8.642;2023-02-01T01:33:16;2.30;;;1.40;;
16403;SDS011;8311;50.158;8.642;2023-02-01T01:36:10;3.58;;;1.38;;
16403;SDS011;8311;50.158;8.642;2023-02-01T01:39:04;2.22;;;1.35;;
16403;SDS011;8311;50.158;8.642;2023-02-01T01:41:58;2.67;;;1.20;;
16403;SDS011;8311;50.158;8.642;2023-02-01T01:44:56;2.08;;;1.15;;
16403;SDS011;8311;50.158;8.642;2023-02-01T01:47:55;2.95;;;1.30;;
16403;SDS011;8311;50.158;8.642;2023-02-01T01:50:51;1.95;;;1.17;;
16403;SDS011;8311;50.158;8.642;2023-02-01T01:53:55;1.83;;;1.10;;
16403;SDS011;8311;50.158;8.642;2023-02-01T01:56:55;1.33;;;0.90;;
16403;SDS011;8311;50.158;8.642;2023-02-01T01:59:53;2.72;;;1.23;;
16403;SDS011;8311;50.158;8.642;2023-02-01T02:02:58;2.67;;;1.17;;
16403;SDS011;8311;50.158;8.642;2023-02-01T02:05:55;2.20;;;1.17;;
16403;SDS011;8311;50.158;8.642;2023-02-01T02:08:51;2.05;;;1.30;;
16403;SDS011;8311;50.158;8.642;2023-02-01T02:11:44;2.08;;;1.25;;
16403;SDS011;8311;50.158;8.642;2023-02-01T02:14:38;2.92;;;1.30;;
16403;SDS011;8311;50.158;8.642;2023-02-01T02:17:33;1.70;;;1.00;;
16403;SDS011;8311;50.158;8.642;2023-02-01T02:20:38;4.40;;;1.45;;
16403;SDS011;8311;50.158;8.642;2023-02-01T02:27:11;1.95;;;1.30;;
16403;SDS011;8311;50.158;8.642;2023-02-01T02:30:22;3.25;;;1.40;;
16403;SDS011;8311;50.158;8.642;2023-02-01T02:33:52;2.33;;;1.40;;
16403;SDS011;8311;50.158;8.642;2023-02-01T02:36:54;2.38;;;1.55;;
16403;SDS011;8311;50.158;8.642;2023-02-01T02:39:54;1.92;;;1.38;;
16403;SDS011;8311;50.158;8.642;2023-02-01T02:42:58;3.85;;;1.55;;
16403;SDS011;8311;50.158;8.642;2023-02-01T02:46:15;1.90;;;1.45;;
16403;SDS011;8311;50.158;8.642;2023-02-01T02:49:34;2.90;;;1.77;;
16403;SDS011;8311;50.158;8.642;2023-02-01T02:52:29;4.00;;;1.65;;
16403;SDS011;8311;50.158;8.642;2023-02-01T02:55:41;2.95;;;1.70;;
16403;SDS011;8311;50.158;8.642;2023-02-01T02:58:35;3.88;;;1.50;;
16403;SDS011;8311;50.158;8.642;2023-02-01T03:01:46;3.22;;;1.73;;
16403;SDS011;8311;50.158;8.642;2023-02-01T03:04:59;2.72;;;1.50;;
16403;SDS011;8311;50.158;8.642;2023-02-01T03:07:57;4.28;;;1.75;;
16403;SDS011;8311;50.158;8.642;2023-02-01T03:10:58;4.97;;;2.30;;
16403;SDS011;8311;50.158;8.642;2023-02-01T03:13:56;3.40;;;1.80;;
16403;SDS011;8311;50.158;8.642;2023-02-01T03:16:53;5.10;;;2.13;;
16403;SDS011;8311;50.158;8.642;2023-02-01T03:19:51;4.60;;;2.25;;
16403;SDS011;8311;50.158;8.642;2023-02-01T03:22:47;3.45;;;2.00;;
16403;SDS011;8311;50.158;8.642;2023-02-01T03:25:41;2.88;;;1.73;;
16403;SDS011;8311;50.158;8.642;2023-02-01T03:28:35;2.83;;;1.70;;
16403;SDS011;8311;50.158;8.642;2023-02-01T03:31:32;7.03;;;2.20;;
16403;SDS011;8311;50.158;8.642;2023-02-01T03:34:25;3.95;;;1.85;;
16403;SDS011;8311;50.158;8.642;2023-02-01T03:37:20;3.97;;;1.80;;
16403;SDS011;8311;50.158;8.642;2023-02-01T03:40:18;2.75;;;1.48;;
16403;SDS011;8311;50.158;8.642;2023-02-01T03:43:12;3.10;;;1.63;;
16403;SDS011;8311;50.158;8.642;2023-02-01T03:46:10;3.28;;;1.70;;
16403;SDS011;8311;50.158;8.642;2023-02-01T03:49:08;3.95;;;1.75;;
16403;SDS011;8311;50.158;8.642;2023-02-01T03:52:05;3.35;;;1.58;;
16403;SDS011;8311;50.158;8.642;2023-02-01T03:55:00;3.97;;;1.80;;
16403;SDS011;8311;50.158;8.642;2023-02-01T03:57:57;3.80;;;1.80;;
16403;SDS011;8311;50.158;8.642;2023-02-01T04:00:54;3.92;;;1.70;;
16403;SDS011;8311;50.158;8.642;2023-02-01T04:03:48;2.78;;;1.70;;
16403;SDS011;8311;50.158;8.642;2023-02-01T04:06:42;3.45;;;1.90;;
16403;SDS011;8311;50.158;8.642;2023-02-01T04:09:35;4.38;;;1.70;;
16403;SDS011;8311;50.158;8.642;2023-02-01T04:12:28;3.80;;;1.70;;
16403;SDS011;8311;50.158;8.642;2023-02-01T04:15:23;5.45;;;2.00;;
16403;SDS011;8311;50.158;8.642;2023-02-01T04:18:16;3.38;;;1.58;;
16403;SDS011;8311;50.158;8.642;2023-02-01T04:21:10;2.72;;;1.58;;
16403;SDS011;8311;50.158;8.642;2023-02-01T04:24:03;4.82;;;2.00;;
16403;SDS011;8311;50.158;8.642;2023-02-01T04:26:56;3.95;;;1.98;;
16403;SDS011;8311;50.158;8.642;2023-02-01T04:29:49;3.00;;;1.65;;
16403;SDS011;8311;50.158;8.642;2023-02-01T04:32:44;3.08;;;1.60;;
16403;SDS011;8311;50.158;8.642;2023-02-01T04:35:37;2.20;;;1.33;;
16403;SDS011;8311;50.158;8.642;2023-02-01T04:38:30;3.00;;;1.70;;
16403;SDS011;8311;50.158;8.642;2023-02-01T04:41:24;3.45;;;1.70;;
16403;SDS011;8311;50.158;8.642;2023-02-01T04:44:19;2.80;;;1.60;;
16403;SDS011;8311;50.158;8.642;2023-02-01T04:47:12;3.65;;;2.15;;
16403;SDS011;8311;50.158;8.642;2023-02-01T04:50:08;4.95;;;1.90;;
16403;SDS011;8311;50.158;8.642;2023-02-01T04:53:02;2.45;;;1.40;;
16403;SDS011;8311;50.158;8.642;2023-02-01T04:55:55;3.28;;;1.95;;
16403;SDS011;8311;50.158;8.642;2023-02-01T04:58:48;3.30;;;1.65;;
16403;SDS011;8311;50.158;8.642;2023-02-01T05:01:41;3.33;;;1.70;;
16403;SDS011;8311;50.158;8.642;2023-02-01T05:04:34;3.70;;;2.10;;
16403;SDS011;8311;50.158;8.642;2023-02-01T05:07:29;4.07;;;2.03;;
16403;SDS011;8311;50.158;8.642;2023-02-01T05:10:21;4.05;;;2.15;;
16403;SDS011;8311;50.158;8.642;2023-02-01T05:13:15;2.90;;;1.65;;
16403;SDS011;8311;50.158;8.642;2023-02-01T05:16:25;4.70;;;1.88;;
16403;SDS011;8311;50.158;8.642;2023-02-01T05:19:18;3.50;;;2.00;;
16403;SDS011;8311;50.158;8.642;2023-02-01T05:22:11;3.17;;;1.83;;
16403;SDS011;8311;50.158;8.642;2023-02-01T05:25:06;2.65;;;1.52;;
16403;SDS011;8311;50.158;8.642;2023-02-01T05:27:59;3.55;;;1.80;;
16403;SDS011;8311;50.158;8.642;2023-02-01T05:30:52;5.10;;;1.88;;
16403;SDS011;8311;50.158;8.642;2023-02-01T05:33:46;4.15;;;2.03;;
16403;SDS011;8311;50.158;8.642;2023-02-01T05:36:40;3.58;;;1.90;;
16403;SDS011;8311;50.158;8.642;2023-02-01T05:39:33;4.95;;;1.70;;
16403;SDS011;8311;50.158;8.642;2023-02-01T05:42:28;3.88;;;1.90;;
16403;SDS011;8311;50.158;8.642;2023-02-01T05:45:22;2.50;;;1.48;;
16403;SDS011;8311;50.158;8.642;2023-02-01T05:48:14;3.28;;;1.83;;
16403;SDS011;8311;50.158;8.642;2023-02-01T05:51:08;4.15;;;1.90;;
16403;SDS011;8311;50.158;8.642;2023-02-01T05:54:01;3.35;;;1.60;;
16403;SDS011;8311;50.158;8.642;2023-02-01T05:56:54;2.85;;;1.80;;
16403;SDS011;8311;50.158;8.642;2023-02-01T05:59:49;4.35;;;2.15;;
16403;SDS011;8311;50.158;8.642;2023-02-01T06:02:42;4.55;;;1.80;;
16403;SDS011;8311;50.158;8.642;2023-02-01T06:05:35;3.78;;;1.80;;
16403;SDS011;8311;50.158;8.642;2023-02-01T06:08:29;4.03;;;2.05;;
16403;SDS011;8311;50.158;8.642;2023-02-01T06:11:23;3.45;;;1.67;;
16403;SDS011;8311;50.158;8.642;2023-02-01T06:14:24;4.68;;;1.77;;
16403;SDS011;8311;50.158;8.642;2023-02-01T06:17:19;6.63;;;2.00;;
16403;SDS011;8311;50.158;8.642;2023-02-01T06:20:13;5.57;;;1.75;;
16403;SDS011;8311;50.158;8.642;2023-02-01T06:23:07;5.90;;;2.10;;
16403;SDS011;8311;50.158;8.642;2023-02-01T06:26:01;5.93;;;1.88;;
16403;SDS011;8311;50.158;8.642;2023-02-01T06:28:56;4.82;;;1.88;;
16403;SDS011;8311;50.158;8.642;2023-02-01T06:31:49;6.35;;;1.75;;
16403;SDS011;8311;50.158;8.642;2023-02-01T06:34:45;4.35;;;1.70;;
16403;SDS011;8311;50.158;8.642;2023-02-01T06:37:37;5.50;;;2.10;;
16403;SDS011;8311;50.158;8.642;2023-02-01T06:40:30;5.93;;;1.80;;
16403;SDS011;8311;50.158;8.642;2023-02-01T06:43:24;7.63;;;2.20;;
16403;SDS011;8311;50.158;8.642;2023-02-01T06:46:17;3.75;;;1.52;;
16403;SDS011;8311;50.158;8.642;2023-02-01T06:49:10;7.70;;;2.35;;
16403;SDS011;8311;50.158;8.642;2023-02-01T06:52:05;5.63;;;1.85;;
16403;SDS011;8311;50.158;8.642;2023-02-01T06:54:59;4.22;;;1.50;;
16403;SDS011;8311;50.158;8.642;2023-02-01T06:57:55;7.22;;;2.17;;
16403;SDS011;8311;50.158;8.642;2023-02-01T07:00:49;3.97;;;1.77;;
16403;SDS011;8311;50.158;8.642;2023-02-01T07:03:43;4.97;;;1.88;;
16403;SDS011;8311;50.158;8.642;2023-02-01T07:06:40;6.07;;;1.85;;
16403;SDS011;8311;50.158;8.642;2023-02-01T07:09:34;6.30;;;1.98;;
16403;SDS011;8311;50.158;8.642;2023-02-01T07:12:27;7.10;;;2.20;;
16403;SDS011;8311;50.158;8.642;2023-02-01T07:15:20;5.85;;;1.92;;
16403;SDS011;8311;50.158;8.642;2023-02-01T07:18:15;6.28;;;1.92;;
16403;SDS011;8311;50.158;8.642;2023-02-01T07:21:09;6.72;;;2.75;;
16403;SDS011;8311;50.158;8.642;2023-02-01T07:24:03;7.10;;;2.03;;
16403;SDS011;8311;50.158;8.642;2023-02-01T07:26:58;6.07;;;2.63;;
16403;SDS011;8311;50.158;8.642;2023-02-01T07:29:50;8.50;;;2.63;;
16403;SDS011;8311;50.158;8.642;2023-02-01T07:32:44;5.43;;;2.17;;
16403;SDS011;8311;50.158;8.642;2023-02-01T07:35:37;7.63;;;2.30;;
16403;SDS011;8311;50.158;8.642;2023-02-01T07:38:31;8.80;;;2.28;;
16403;SDS011;8311;50.158;8.642;2023-02-01T07:41:23;7.30;;;2.17;;
16403;SDS011;8311;50.158;8.642;2023-02-01T07:44:18;9.27;;;2.47;;
16403;SDS011;8311;50.158;8.642;2023-02-01T07:47:13;5.32;;;2.03;;
16403;SDS011;8311;50.158;8.642;2023-02-01T07:50:07;6.50;;;2.35;;
16403;SDS011;8311;50.158;8.642;2023-02-01T07:53:00;8.20;;;1.90;;
16403;SDS011;8311;50.158;8.642;2023-02-01T07:55:53;5.40;;;2.03;;
16403;SDS011;8311;50.158;8.642;2023-02-01T07:58:48;6.40;;;2.25;;
16403;SDS011;8311;50.158;8.642;2023-02-01T08:01:43;6.93;;;2.08;;
16403;SDS011;8311;50.158;8.642;2023-02-01T08:04:35;8.00;;;2.55;;
16403;SDS011;8311;50.158;8.642;2023-02-01T08:07:28;4.20;;;1.73;;
16403;SDS011;8311;50.158;8.642;2023-02-01T08:10:21;7.45;;;2.10;;
16403;SDS011;8311;50.158;8.642;2023-02-01T08:13:15;5.72;;;2.08;;
16403;SDS011;8311;50.158;8.642;2023-02-01T08:16:09;7.70;;;1.88;;
16403;SDS011;8311;50.158;8.642;2023-02-01T08:19:05;11.10;;;2.17;;
16403;SDS011;8311;50.158;8.642;2023-02-01T08:21:59;14.90;;;2.85;;
16403;SDS011;8311;50.158;8.642;2023-02-01T08:24:53;11.63;;;2.80;;
16403;SDS011;8311;50.158;8.642;2023-02-01T08:27:53;8.10;;;2.58;;
16403;SDS011;8311;50.158;8.642;2023-02-01T08:30:46;8.23;;;2.20;;
16403;SDS011;8311;50.158;8.642;2023-02-01T08:33:39;7.20;;;1.83;;
16403;SDS011;8311;50.158;8.642;2023-02-01T08:36:34;10.27;;;1.92;;
16403;SDS011;8311;50.158;8.642;2023-02-01T08:39:29;6.45;;;2.10;;
16403;SDS011;8311;50.158;8.642;2023-02-01T08:42:23;7.07;;;1.90;;
16403;SDS011;8311;50.158;8.642;2023-02-01T08:45:33;7.75;;;2.15;;
16403;SDS011;8311;50.158;8.642;2023-02-01T08:48:26;7.20;;;2.25;;
16403;SDS011;8311;50.158;8.642;2023-02-01T08:51:20;4.82;;;1.70;;
16403;SDS011;8311;50.158;8.642;2023-02-01T08:54:16;8.95;;;2.10;;
16403;SDS011;8311;50.158;8.642;2023-02-01T08:57:09;6.55;;;2.20;;
16403;SDS011;8311;50.158;8.642;2023-02-01T09:00:02;7.30;;;2.50;;
16403;SDS011;8311;50.158;8.642;2023-02-01T09:02:56;5.90;;;1.90;;
16403;SDS011;8311;50.158;8.642;2023-02-01T09:05:50;6.65;;;2.17;;
16403;SDS011;8311;50.158;8.642;2023-02-01T09:08:44;4.32;;;1.50;;
16403;SDS011;8311;50.158;8.642;2023-02-01T09:11:39;5.97;;;1.90;;
16403;SDS011;8311;50.158;8.642;2023-02-01T09:14:31;6.15;;;1.77;;
16403;SDS011;8311;50.158;8.642;2023-02-01T09:17:25;5.50;;;1.70;;
16403;SDS011;8311;50.158;8.642;2023-02-01T09:20:18;4.00;;;1.52;;
16403;SDS011;8311;50.158;8.642;2023-02-01T09:23:15;5.75;;;1.83;;
16403;SDS011;8311;50.158;8.642;2023-02-01T09:26:09;6.00;;;1.80;;
16403;SDS011;8311;50.158;8.642;2023-02-01T09:29:07;5.68;;;2.00;;
16403;SDS011;8311;50.158;8.642;2023-02-01T09:32:03;4.50;;;1.70;;
16403;SDS011;8311;50.158;8.642;2023-02-01T09:34:57;7.43;;;2.00;;
16403;SDS011;8311;50.158;8.642;2023-02-01T09:37:52;7.28;;;1.85;;
16403;SDS011;8311;50.158;8.642;2023-02-01T09:40:46;3.65;;;1.30;;
16403;SDS011;8311;50.158;8.642;2023-02-01T09:43:42;6.55;;;1.80;;
16403;SDS011;8311;50.158;8.642;2023-02-01T09:46:42;4.45;;;1.52;;
16403;SDS011;8311;50.158;8.642;2023-02-01T09:49:37;3.80;;;1.60;;
16403;SDS011;8311;50.158;8.642;2023-02-01T09:52:38;5.53;;;1.65;;
16403;SDS011;8311;50.158;8.642;2023-02-01T09:55:37;6.72;;;1.42;;
16403;SDS011;8311;50.158;8.642;2023-02-01T09:58:35;6.80;;;2.00;;
16403;SDS011;8311;50.158;8.642;2023-02-01T10:01:33;3.08;;;1.45;;
16403;SDS011;8311;50.158;8.642;2023-02-01T10:04:28;3.75;;;1.20;;
16403;SDS011;8311;50.158;8.642;2023-02-01T10:07:24;5.07;;;1.60;;
16403;SDS011;8311;50.158;8.642;2023-02-01T10:10:27;4.40;;;1.80;;
16403;SDS011;8311;50.158;8.642;2023-02-01T10:13:26;3.53;;;1.55;;
16403;SDS011;8311;50.158;8.642;2023-02-01T10:16:34;3.05;;;1.33;;
16403;SDS011;8311;50.158;8.642;2023-02-01T10:19:39;4.53;;;1.50;;
16403;SDS011;8311;50.158;8.642;2023-02-01T10:22:41;2.65;;;1.15;;
16403;SDS011;8311;50.158;8.642;2023-02-01T10:25:58;4.57;;;1.30;;
16403;SDS011;8311;50.158;8.642;2023-02-01T10:29:02;3.70;;;1.33;;
16403;SDS011;8311;50.158;8.642;2023-02-01T10:31:56;3.22;;;1.23;;
16403;SDS011;8311;50.158;8.642;2023-02-01T10:34:52;4.25;;;1.48;;
16403;SDS011;8311;50.158;8.642;2023-02-01T10:37:49;3.97;;;1.10;;
16403;SDS011;8311;50.158;8.642;2023-02-01T10:40:43;5.53;;;1.70;;
16403;SDS011;8311;50.158;8.642;2023-02-01T10:43:36;4.60;;;1.40;;
16403;SDS011;8311;50.158;8.642;2023-02-01T10:46:30;5.15;;;1.63;;
16403;SDS011;8311;50.158;8.642;2023-02-01T10:49:26;2.72;;;1.23;;
16403;SDS011;8311;50.158;8.642;2023-02-01T10:52:31;1.73;;;0.90;;
16403;SDS011;8311;50.158;8.642;2023-02-01T10:55:36;3.03;;;1.33;;
16403;SDS011;8311;50.158;8.642;2023-02-01T10:58:32;3.33;;;1.27;;
16403;SDS011;8311;50.158;8.642;2023-02-01T11:01:28;3.25;;;1.20;;
16403;SDS011;8311;50.158;8.642;2023-02-01T11:04:26;2.63;;;1.10;;
16403;SDS011;8311;50.158;8.642;2023-02-01T11:07:23;4.15;;;1.30;;
16403;SDS011;8311;50.158;8.642;2023-02-01T11:13:32;2.85;;;1.10;;
16403;SDS011;8311;50.158;8.642;2023-02-01T11:16:37;3.83;;;1.20;;
16403;SDS011;8311;50.158;8.642;2023-02-01T11:19:31;1.52;;;0.90;;
16403;SDS011;8311;50.158;8.642;2023-02-01T11:22:24;3.17;;;1.30;;
16403;SDS011;8311;50.158;8.642;2023-02-01T11:25:20;5.43;;;1.63;;
16403;SDS011;8311;50.158;8.642;2023-02-01T11:28:13;9.48;;;2.58;;
16403;SDS011;8311;50.158;8.642;2023-02-01T11:31:10;11.85;;;2.70;;
16403;SDS011;8311;50.158;8.642;2023-02-01T11:34:06;9.35;;;2.58;;
16403;SDS011;8311;50.158;8.642;2023-02-01T11:37:03;8.18;;;2.20;;
16403;SDS011;8311;50.158;8.642;2023-02-01T11:39:57;7.43;;;2.63;;
16403;SDS011;8311;50.158;8.642;2023-02-01T11:42:53;11.32;;;2.70;;
16403;SDS011;8311;50.158;8.642;2023-02-01T11:45:53;8.50;;;2.22;;
16403;SDS011;8311;50.158;8.642;2023-02-01T11:48:49;6.55;;;1.85;;
16403;SDS011;8311;50.158;8.642;2023-02-01T11:51:45;6.63;;;2.38;;
16403;SDS011;8311;50.158;8.642;2023-02-01T11:54:54;8.88;;;2.40;;
16403;SDS011;8311;50.158;8.642;2023-02-01T11:57:59;4.70;;;1.90;;
16403;SDS011;8311;50.158;8.642;2023-02-01T12:01:06;7.78;;;2.50;;
16403;SDS011;8311;50.158;8.642;2023-02-01T12:04:30;7.35;;;2.47;;
16403;SDS011;8311;50.158;8.642;2023-02-01T12:07:54;8.20;;;2.15;;
16403;SDS011;8311;50.158;8.642;2023-02-01T12:11:00;6.30;;;2.05;;
16403;SDS011;8311;50.158;8.642;2023-02-01T12:14:07;6.97;;;2.30;;
16403;SDS011;8311;50.158;8.642;2023-02-01T12:17:25;7.55;;;2.00;;
16403;SDS011;8311;50.158;8.642;2023-02-01T12:23:54;7.68;;;2.13;;
16403;SDS011;8311;50.158;8.642;2023-02-01T12:26:58;6.72;;;1.70;;
16403;SDS011;8311;50.158;8.642;2023-02-01T12:30:12;4.50;;;1.80;;
16403;SDS011;8311;50.158;8.642;2023-02-01T12:33:28;4.47;;;1.73;;
16403;SDS011;8311;50.158;8.642;2023-02-01T12:36:35;6.95;;;1.75;;
16403;SDS011;8311;50.158;8.642;2023-02-01T12:39:36;8.20;;;1.83;;
16403;SDS011;8311;50.158;8.642;2023-02-01T12:42:33;4.45;;;1.45;;
16403;SDS011;8311;50.158;8.642;2023-02-01T12:45:34;4.82;;;1.70;;
16403;SDS011;8311;50.158;8.642;2023-02-01T12:48:31;4.15;;;1.90;;
16403;SDS011;8311;50.158;8.642;2023-02-01T12:51:31;6.57;;;2.28;;
16403;SDS011;8311;50.158;8.642;2023-02-01T12:54:30;3.75;;;1.25;;
16403;SDS011;8311;50.158;8.642;2023-02-01T12:57:28;5.72;;;1.63;;
16403;SDS011;8311;50.158;8.642;2023-02-01T13:00:27;6.28;;;1.55;;
16403;SDS011;8311;50.158;8.642;2023-02-01T13:03:29;13.30;;;1.75;;
16403;SDS011;8311;50.158;8.642;2023-02-01T13:06:29;6.38;;;1.80;;
16403;SDS011;8311;50.158;8.642;2023-02-01T13:09:29;6.28;;;1.73;;
16403;SDS011;8311;50.158;8.642;2023-02-01T13:12:28;9.40;;;1.90;;
16403;SDS011;8311;50.158;8.642;2023-02-01T13:15:27;4.95;;;1.88;;
16403;SDS011;8311;50.158;8.642;2023-02-01T13:18:24;5.40;;;1.65;;
16403;SDS011;8311;50.158;8.642;2023-02-01T13:21:25;6.55;;;1.75;;
16403;SDS011;8311;50.158;8.642;2023-02-01T13:24:23;4.20;;;1.65;;
16403;SDS011;8311;50.158;8.642;2023-02-01T13:27:22;3.78;;;1.40;;
16403;SDS011;8311;50.158;8.642;2023-02-01T13:30:22;3.78;;;1.40;;
16403;SDS011;8311;50.158;8.642;2023-02-01T13:33:28;5.88;;;1.50;;
16403;SDS011;8311;50.158;8.642;2023-02-01T13:36:49;3.83;;;1.20;;
16403;SDS011;8311;50.158;8.642;2023-02-01T13:39:59;7.53;;;1.58;;
16403;SDS011;8311;50.158;8.642;2023-02-01T13:43:13;4.03;;;1.40;;
16403;SDS011;8311;50.158;8.642;2023-02-01T13:46:10;5.60;;;1.48;;
16403;SDS011;8311;50.158;8.642;2023-02-01T13:49:07;5.78;;;1.48;;
16403;SDS011;8311;50.158;8.642;2023-02-01T13:52:23;12.13;;;2.05;;
16403;SDS011;8311;50.158;8.642;2023-02-01T13:55:27;4.35;;;1.85;;
16403;SDS011;8311;50.158;8.642;2023-02-01T13:58:30;7.68;;;1.98;;
16403;SDS011;8311;50.158;8.642;2023-02-01T14:04:46;2.88;;;1.20;;
16403;SDS011;8311;50.158;8.642;2023-02-01T14:11:02;4.75;;;1.40;;
16403;SDS011;8311;50.158;8.642;2023-02-01T14:13:57;5.18;;;1.40;;
16403;SDS011;8311;50.158;8.642;2023-02-01T14:23:38;6.10;;;1.45;;
16403;SDS011;8311;50.158;8.642;2023-02-01T14:26:42;8.15;;;1.50;;
16403;SDS011;8311;50.158;8.642;2023-02-01T14:29:40;8.13;;;1.60;;
16403;SDS011;8311;50.158;8.642;2023-02-01T14:32:36;5.82;;;1.27;;
16403;SDS011;8311;50.158;8.642;2023-02-01T14:35:32;6.93;;;1.70;;
16403;SDS011;8311;50.158;8.642;2023-02-01T14:38:26;5.97;;;1.60;;
16403;SDS011;8311;50.158;8.642;2023-02-01T14:41:24;4.13;;;1.73;;
16403;SDS011;8311;50.158;8.642;2023-02-01T14:44:24;3.20;;;1.50;;
16403;SDS011;8311;50.158;8.642;2023-02-01T14:47:32;4.10;;;1.27;;
16403;SDS011;8311;50.158;8.642;2023-02-01T14:50:27;4.55;;;1.30;;
16403;SDS011;8311;50.158;8.642;2023-02-01T14:53:29;6.70;;;1.63;;
16403;SDS011;8311;50.158;8.642;2023-02-01T14:56:26;4.90;;;1.23;;
16403;SDS011;8311;50.158;8.642;2023-02-01T14:59:21;5.45;;;1.33;;
16403;SDS011;8311;50.158;8.642;2023-02-01T15:02:20;9.30;;;1.92;;
16403;SDS011;8311;50.158;8.642;2023-02-01T15:05:22;2.88;;;1.20;;
16403;SDS011;8311;50.158;8.642;2023-02-01T15:08:18;5.93;;;1.40;;
16403;SDS011;8311;50.158;8.642;2023-02-01T15:11:18;5.45;;;1.30;;
16403;SDS011;8311;50.158;8.642;2023-02-01T15:14:11;3.42;;;1.60;;
16403;SDS011;8311;50.158;8.642;2023-02-01T15:17:17;5.97;;;1.40;;
16403;SDS011;8311;50.158;8.642;2023-02-01T15:20:13;3.35;;;1.40;;
16403;SDS011;8311;50.158;8.642;2023-02-01T15:23:16;4.15;;;1.40;;
16403;SDS011;8311;50.158;8.642;2023-02-01T15:26:10;4.47;;;1.30;;
16403;SDS011;8311;50.158;8.642;2023-02-01T15:29:03;2.60;;;1.10;;
16403;SDS011;8311;50.158;8.642;2023-02-01T15:31:56;4.43;;;1.23;;
16403;SDS011;8311;50.158;8.642;2023-02-01T15:34:49;7.00;;;1.48;;
16403;SDS011;8311;50.158;8.642;2023-02-01T15:37:43;5.22;;;1.35;;
16403;SDS011;8311;50.158;8.642;2023-02-01T15:40:37;8.07;;;1.50;;
16403;SDS011;8311;50.158;8.642;2023-02-01T15:46:57;8.20;;;1.52;;
16403;SDS011;8311;50.158;8.642;2023-02-01T15:49:51;5.03;;;1.27;;
16403;SDS011;8311;50.158;8.642;2023-02-01T15:52:48;3.28;;;1.38;;
16403;SDS011;8311;50.158;8.642;2023-02-01T15:55:44;3.58;;;1.13;;
16403;SDS011;8311;50.158;8.642;2023-02-01T15:58:40;7.68;;;1.25;;
16403;SDS011;8311;50.158;8.642;2023-02-01T16:01:36;4.35;;;1.17;;
16403;SDS011;8311;50.158;8.642;2023-02-01T16:04:45;4.15;;;1.20;;
16403;SDS011;8311;50.158;8.642;2023-02-01T16:07:46;2.45;;;1.10;;
16403;SDS011;8311;50.158;8.642;2023-02-01T16:10:51;5.20;;;1.48;;
16403;SDS011;8311;50.158;8.642;2023-02-01T16:13:45;3.78;;;1.40;;
16403;SDS011;8311;50.158;8.642;2023-02-01T16:16:38;2.80;;;0.95;;
16403;SDS011;8311;50.158;8.642;2023-02-01T16:19:30;3.55;;;1.23;;
16403;SDS011;8311;50.158;8.642;2023-02-01T16:22:24;2.75;;;1.05;;
16403;SDS011;8311;50.158;8.642;2023-02-01T16:25:18;2.85;;;1.33;;
16403;SDS011;8311;50.158;8.642;2023-02-01T16:28:13;2.15;;;0.90;;
16403;SDS011;8311;50.158;8.642;2023-02-01T16:31:08;3.80;;;1.20;;
16403;SDS011;8311;50.158;8.642;2023-02-01T16:34:10;3.65;;;1.27;;
16403;SDS011;8311;50.158;8.642;2023-02-01T16:37:09;1.98;;;0.93;;
16403;SDS011;8311;50.158;8.642;2023-02-01T16:40:05;3.00;;;0.95;;
16403;SDS011;8311;50.158;8.642;2023-02-01T16:43:02;4.72;;;1.30;;
16403;SDS011;8311;50.158;8.642;2023-02-01T16:46:01;3.13;;;0.95;;
16403;SDS011;8311;50.158;8.642;2023-02-01T16:48:56;5.00;;;1.20;;
16403;SDS011;8311;50.158;8.642;2023-02-01T16:51:50;6.70;;;1.20;;
16403;SDS011;8311;50.158;8.642;2023-02-01T16:54:47;13.65;;;1.27;;
16403;SDS011;8311;50.158;8.642;2023-02-01T16:57:41;6.65;;;1.08;;
16403;SDS011;8311;50.158;8.642;2023-02-01T17:00:35;5.65;;;1.70;;
16403;SDS011;8311;50.158;8.642;2023-02-01T17:03:30;6.20;;;1.55;;
16403;SDS011;8311;50.158;8.642;2023-02-01T17:06:24;2.75;;;1.08;;
16403;SDS011;8311;50.158;8.642;2023-02-01T17:09:18;2.88;;;1.20;;
16403;SDS011;8311;50.158;8.642;2023-02-01T17:12:15;4.28;;;1.40;;
16403;SDS011;8311;50.158;8.642;2023-02-01T17:15:13;7.22;;;1.20;;
16403;SDS011;8311;50.158;8.642;2023-02-01T17:18:07;2.80;;;1.05;;
16403;SDS011;8311;50.158;8.642;2023-02-01T17:21:08;2.90;;;0.95;;
16403;SDS011;8311;50.158;8.642;2023-02-01T17:24:04;3.67;;;1.13;;
16403;SDS011;8311;50.158;8.642;2023-02-01T17:26:58;2.05;;;1.02;;
16403;SDS011;8311;50.158;8.642;2023-02-01T17:29:51;3.63;;;1.05;;
16403;SDS011;8311;50.158;8.642;2023-02-01T17:32:48;3.45;;;0.98;;
16403;SDS011;8311;50.158;8.642;2023-02-01T17:35:41;5.10;;;1.00;;
16403;SDS011;8311;50.158;8.642;2023-02-01T17:38:37;3.45;;;1.25;;
16403;SDS011;8311;50.158;8.642;2023-02-01T17:41:30;2.47;;;1.02;;
16403;SDS011;8311;50.158;8.642;2023-02-01T17:44:24;4.25;;;1.52;;
16403;SDS011;8311;50.158;8.642;2023-02-01T17:47:17;1.20;;;0.70;;
16403;SDS011;8311;50.158;8.642;2023-02-01T17:50:10;5.28;;;1.00;;
16403;SDS011;8311;50.158;8.642;2023-02-01T17:53:03;3.97;;;1.00;;
16403;SDS011;8311;50.158;8.642;2023-02-01T17:56:01;2.90;;;0.90;;
16403;SDS011;8311;50.158;8.642;2023-02-01T17:58:55;3.00;;;1.20;;
16403;SDS011;8311;50.158;8.642;2023-02-01T18:01:49;1.42;;;0.93;;
16403;SDS011;8311;50.158;8.642;2023-02-01T18:04:42;4.05;;;1.10;;
16403;SDS011;8311;50.158;8.642;2023-02-01T18:07:35;2.92;;;0.95;;
16403;SDS011;8311;50.158;8.642;2023-02-01T18:10:28;2.70;;;0.82;;
16403;SDS011;8311;50.158;8.642;2023-02-01T18:13:23;4.20;;;0.93;;
16403;SDS011;8311;50.158;8.642;2023-02-01T18:16:18;2.35;;;0.93;;
16403;SDS011;8311;50.158;8.642;2023-02-01T18:19:13;2.58;;;1.00;;
16403;SDS011;8311;50.158;8.642;2023-02-01T18:22:08;2.92;;;0.90;;
16403;SDS011;8311;50.158;8.642;2023-02-01T18:25:09;2.25;;;0.90;;
16403;SDS011;8311;50.158;8.642;2023-02-01T18:28:08;2.53;;;0.98;;